Time;durP1;ratioP1;P1;durP2;ratioP2;P2;SDS_P1;SDS_P2;PMS_P1;PMS_P2;Temp;Humidity;BMP_temperature;BMP_pressure;BME280_temperature;BME280_humidity;BME280_pressure;Samples;Min_cycle;Max_cycle;Signal;HPM_P1;HPM_P2
2021/10/24 00:01:59;;;;;;;6.00;2.97;;;;;;;-138.14;100.00;63448.66;4954566;28;20297;-71
2021/10/24 00:04:25;;;;;;;4.10;2.90;;;;;;;-138.14;100.00;63448.66;4939165;28;20210;-71
2021/10/24 00:06:50;;;;;;;5.97;3.10;;;;;;;-138.14;100.00;63448.66;4922790;28;20225;-71
2021/10/24 00:09:18;;;;;;;4.87;2.90;;;;;;;-138.14;100.00;63448.66;4947665;28;20190;-71
2021/10/24 00:11:46;;;;;;;3.40;2.90;;;;;;;-138.14;100.00;63448.66;4922942;28;20276;-72
2021/10/24 00:14:12;;;;;;;5.37;2.90;;;;;;;-138.14;100.00;63448.66;4955077;28;20214;-71
2021/10/24 00:16:40;;;;;;;5.10;2.90;;;;;;;-138.14;100.00;63448.66;4938490;28;20328;-71
2021/10/24 00:19:05;;;;;;;6.33;2.83;;;;;;;-138.14;100.00;63448.66;4961358;28;20202;-71
2021/10/24 00:21:31;;;;;;;4.50;2.87;;;;;;;-138.14;100.00;63448.66;4938698;28;20222;-71
2021/10/24 00:23:59;;;;;;;9.60;2.87;;;;;;;-138.14;100.00;63448.66;4942738;28;20207;-71
2021/10/24 00:26:24;;;;;;;4.93;2.63;;;;;;;-138.14;100.00;63448.66;4924569;29;20218;-72
2021/10/24 00:28:50;;;;;;;5.63;2.80;;;;;;;-138.14;100.00;63448.66;4959327;28;20187;-71
2021/10/24 00:31:18;;;;;;;6.87;2.53;;;;;;;-138.14;100.00;63448.66;4974250;28;20707;-71
2021/10/24 00:33:43;;;;;;;5.10;2.60;;;;;;;-138.14;100.00;63448.66;4942777;28;20213;-72
2021/10/24 00:36:09;;;;;;;3.50;2.50;;;;;;;-138.14;100.00;63448.66;4942630;28;20257;-72
2021/10/24 00:38:36;;;;;;;7.17;2.90;;;;;;;-138.14;100.00;63448.66;4959253;28;20190;-72
2021/10/24 00:41:01;;;;;;;5.57;2.50;;;;;;;-138.14;100.00;63448.66;4926188;28;20284;-71
2021/10/24 00:43:30;;;;;;;7.10;2.63;;;;;;;-138.14;100.00;63448.66;4958962;28;20248;-72
2021/10/24 00:45:55;;;;;;;6.20;2.57;;;;;;;-138.14;100.00;63448.66;4952515;28;20233;-71
2021/10/24 00:48:23;;;;;;;7.47;2.87;;;;;;;-138.14;100.00;63448.66;4957849;28;20195;-71
2021/10/24 00:50:49;;;;;;;6.50;2.70;;;;;;;-138.14;100.00;63448.66;4950505;28;20304;-71
2021/10/24 00:53:14;;;;;;;6.97;3.20;;;;;;;-138.14;100.00;63448.66;4942413;28;20206;-71
2021/10/24 00:55:43;;;;;;;17.20;3.40;;;;;;;-138.14;100.00;63448.66;4932395;28;20231;-71
2021/10/24 00:58:12;;;;;;;6.20;3.00;;;;;;;-138.14;100.00;63448.66;4956808;28;20189;-71
2021/10/24 01:00:40;;;;;;;6.17;3.20;;;;;;;-138.14;100.00;63448.66;4952375;28;20305;-71
2021/10/24 01:03:06;;;;;;;6.77;3.30;;;;;;;-138.14;100.00;63448.66;4942381;28;20313;-71
2021/10/24 01:05:34;;;;;;;5.80;3.30;;;;;;;-138.14;100.00;63448.66;4922553;29;20211;-71
2021/10/24 01:08:00;;;;;;;7.17;3.23;;;;;;;-138.14;100.00;63448.66;4938702;29;20187;-72
2021/10/24 01:10:30;;;;;;;6.17;2.70;;;;;;;-138.14;100.00;63448.66;4940905;28;20182;-71
2021/10/24 01:12:55;;;;;;;6.07;3.03;;;;;;;-138.14;100.00;63448.66;4941686;28;20233;-72
2021/10/24 01:15:22;;;;;;;7.63;3.30;;;;;;;-138.14;100.00;63448.66;4925254;28;20194;-71
2021/10/24 01:17:49;;;;;;;8.47;3.60;;;;;;;-138.14;100.00;63448.66;4968835;28;20240;-71
2021/10/24 01:20:22;;;;;;;6.03;3.10;;;;;;;-138.14;100.00;63448.66;4941171;28;20179;-71
2021/10/24 01:22:51;;;;;;;7.90;3.33;;;;;;;-138.14;100.00;63448.66;4941724;28;20178;-71
2021/10/24 01:25:17;;;;;;;7.07;3.00;;;;;;;-138.14;100.00;63448.66;4925275;28;20182;-71
2021/10/24 01:27:44;;;;;;;9.10;3.30;;;;;;;-138.14;100.00;63448.66;4985396;28;20266;-71
2021/10/24 01:30:10;;;;;;;4.47;2.77;;;;;;;-138.14;100.00;63448.66;4925458;28;20638;-71
2021/10/24 01:32:36;;;;;;;4.17;3.20;;;;;;;-138.14;100.00;63448.66;4941423;28;20183;-71
2021/10/24 01:35:02;;;;;;;10.80;3.60;;;;;;;-138.14;100.00;63448.66;4957298;28;20214;-71
2021/10/24 01:37:38;;;;;;;8.60;3.37;;;;;;;-138.14;100.00;63448.66;4956758;28;20218;-71
2021/10/24 01:40:11;;;;;;;6.40;3.40;;;;;;;-138.14;100.00;63448.66;4973358;28;20241;-71
2021/10/24 01:43:06;;;;;;;7.50;3.80;;;;;;;-138.14;100.00;63448.66;4956734;28;20684;-71
2021/10/24 01:45:31;;;;;;;6.83;3.90;;;;;;;-138.14;100.00;63448.66;4947729;28;20703;-71
2021/10/24 01:48:20;;;;;;;5.70;3.87;;;;;;;-138.14;100.00;63448.66;4945247;28;20206;-71
2021/10/24 01:50:46;;;;;;;7.77;3.63;;;;;;;-138.14;100.00;63448.66;4988859;28;20575;-71
2021/10/24 01:53:15;;;;;;;6.13;3.60;;;;;;;-138.14;100.00;63448.66;4940935;28;20209;-71
2021/10/24 01:55:43;;;;;;;9.77;3.57;;;;;;;-138.14;100.00;63448.66;4940257;28;20596;-71
2021/10/24 01:58:09;;;;;;;6.17;3.37;;;;;;;-138.14;100.00;63448.66;4955732;28;20546;-71
2021/10/24 02:00:36;;;;;;;5.97;3.80;;;;;;;-138.14;100.00;63448.66;4940233;28;20622;-71
2021/10/24 02:03:05;;;;;;;7.27;3.60;;;;;;;-138.14;100.00;63448.66;4941280;28;20217;-72
2021/10/24 02:06:04;;;;;;;4.37;3.13;;;;;;;-138.14;100.00;63448.66;4944607;28;20220;-72
2021/10/24 02:08:33;;;;;;;7.83;3.63;;;;;;;-138.14;100.00;63448.66;4941192;28;20647;-71
2021/10/24 02:11:01;;;;;;;7.13;3.57;;;;;;;-138.14;100.00;63448.66;4956180;28;20222;-71
2021/10/24 02:13:29;;;;;;;6.27;3.87;;;;;;;-138.14;100.00;63448.66;4941130;28;20265;-71
2021/10/24 02:16:01;;;;;;;6.27;3.87;;;;;;;-138.14;100.00;63448.66;4941416;28;20299;-71
2021/10/24 02:18:27;;;;;;;6.47;3.90;;;;;;;-138.14;100.00;63448.66;4947118;28;20711;-70
2021/10/24 02:20:55;;;;;;;7.63;4.10;;;;;;;-138.14;100.00;63448.66;4940910;28;20728;-70
2021/10/24 02:23:20;;;;;;;6.13;3.63;;;;;;;-138.14;100.00;63448.66;4956367;28;20214;-71
2021/10/24 02:25:50;;;;;;;6.93;4.40;;;;;;;-138.14;100.00;63448.66;4924865;28;20225;-71
2021/10/24 02:28:21;;;;;;;7.03;3.90;;;;;;;-138.14;100.00;63448.66;4948834;28;20281;-72
2021/10/24 02:30:48;;;;;;;6.47;4.17;;;;;;;-138.14;100.00;63448.66;4924706;28;20607;-71
2021/10/24 02:33:46;;;;;;;8.63;4.40;;;;;;;-138.14;100.00;63448.66;4952806;28;20203;-71
2021/10/24 02:36:20;;;;;;;7.43;4.10;;;;;;;-138.14;100.00;63448.66;4939568;28;20277;-71
2021/10/24 02:38:53;;;;;;;11.33;5.83;;;;;;;-138.14;100.00;63448.66;4940864;28;20186;-72
2021/10/24 02:41:19;;;;;;;9.27;4.77;;;;;;;-138.14;100.00;63448.66;4939912;28;20233;-72
2021/10/24 02:43:45;;;;;;;5.70;4.03;;;;;;;-138.14;100.00;63448.66;4940067;28;20202;-72
2021/10/24 02:46:12;;;;;;;6.43;4.30;;;;;;;-138.14;100.00;63448.66;4954847;28;20230;-71
2021/10/24 02:48:37;;;;;;;7.53;5.00;;;;;;;-138.14;100.00;63448.66;4967460;28;20210;-72
2021/10/24 02:51:03;;;;;;;6.27;4.97;;;;;;;-138.14;100.00;63448.66;4972009;28;20249;-70
2021/10/24 02:53:30;;;;;;;8.00;4.80;;;;;;;-138.14;100.00;63448.66;4942619;28;20199;-72
2021/10/24 02:56:01;;;;;;;7.67;4.97;;;;;;;-138.14;100.00;63448.66;4940050;28;20234;-72
2021/10/24 02:58:28;;;;;;;6.63;4.57;;;;;;;-138.14;100.00;63448.66;4935336;28;20652;-72
2021/10/24 03:00:55;;;;;;;6.87;4.43;;;;;;;-138.14;100.00;63448.66;4923798;28;20683;-72
2021/10/24 03:03:23;;;;;;;9.43;5.30;;;;;;;-138.14;100.00;63448.66;4909841;29;20213;-72
2021/10/24 03:05:49;;;;;;;6.73;4.60;;;;;;;-138.14;100.00;63448.66;4936323;29;20221;-72
2021/10/24 03:08:17;;;;;;;7.70;5.20;;;;;;;-138.14;100.00;63448.66;4933232;28;20182;-72
2021/10/24 03:10:43;;;;;;;7.67;4.47;;;;;;;-138.14;100.00;63448.66;4955250;28;20230;-72
2021/10/24 03:13:12;;;;;;;5.10;4.43;;;;;;;-138.14;100.00;63448.66;4955336;28;20202;-72
2021/10/24 03:15:37;;;;;;;8.07;4.87;;;;;;;-138.14;100.00;63448.66;4954627;28;20230;-72
2021/10/24 03:18:03;;;;;;;7.63;5.23;;;;;;;-138.14;100.00;63448.66;4952472;28;20194;-72
2021/10/24 03:20:29;;;;;;;7.57;4.60;;;;;;;-138.14;100.00;63448.66;4954633;28;20221;-72
2021/10/24 03:22:54;;;;;;;8.23;5.00;;;;;;;-138.14;100.00;63448.66;4972889;28;20210;-72
2021/10/24 03:25:24;;;;;;;6.33;4.77;;;;;;;-138.14;100.00;63448.66;4939304;28;20601;-70
2021/10/24 03:27:50;;;;;;;7.57;4.60;;;;;;;-138.14;100.00;63448.66;4940808;28;20182;-72
2021/10/24 03:30:16;;;;;;;7.13;4.80;;;;;;;-138.14;100.00;63448.66;4904060;29;20278;-70
2021/10/24 03:32:42;;;;;;;7.93;4.93;;;;;;;-138.14;100.00;63448.66;4923827;28;20174;-70
2021/10/24 03:35:10;;;;;;;6.87;5.00;;;;;;;-138.14;100.00;63448.66;4922927;28;20206;-71
2021/10/24 03:37:39;;;;;;;7.33;5.07;;;;;;;-138.14;100.00;63448.66;4935821;29;20179;-70
2021/10/24 03:40:06;;;;;;;7.60;4.67;;;;;;;-138.14;100.00;63448.66;4935823;29;20767;-72
2021/10/24 03:42:32;;;;;;;6.63;5.00;;;;;;;-138.14;100.00;63448.66;4937786;28;20226;-70
2021/10/24 03:44:58;;;;;;;8.47;5.63;;;;;;;-138.14;100.00;63448.66;4939446;28;20202;-72
2021/10/24 03:47:24;;;;;;;10.43;5.77;;;;;;;-138.14;100.00;63448.66;4954700;28;20210;-70
2021/10/24 03:49:52;;;;;;;7.37;5.40;;;;;;;-138.14;100.00;63448.66;4923788;28;20202;-73
2021/10/24 03:52:18;;;;;;;8.63;5.07;;;;;;;-138.14;100.00;63448.66;4939015;28;20230;-70
2021/10/24 03:54:44;;;;;;;8.83;5.17;;;;;;;-138.14;100.00;63448.66;4920255;29;20230;-72
2021/10/24 03:57:09;;;;;;;8.67;5.87;;;;;;;-138.14;100.00;63448.66;4938898;28;20284;-70
2021/10/24 03:59:37;;;;;;;9.93;5.70;;;;;;;-138.14;100.00;63448.66;4939979;28;20208;-72
2021/10/24 04:02:03;;;;;;;8.47;5.13;;;;;;;-138.14;100.00;63448.66;4943019;28;20244;-71
2021/10/24 04:04:29;;;;;;;7.10;5.13;;;;;;;-138.14;100.00;63448.66;4962596;28;20217;-72
2021/10/24 04:06:55;;;;;;;8.63;5.07;;;;;;;-138.14;100.00;63448.66;4942754;28;20226;-73
2021/10/24 04:09:20;;;;;;;6.27;5.37;;;;;;;-138.14;100.00;63448.66;4958589;28;20187;-72
2021/10/24 04:11:50;;;;;;;9.10;5.60;;;;;;;-138.14;100.00;63448.66;4927779;28;20623;-70
2021/10/24 04:14:24;;;;;;;7.17;5.23;;;;;;;-138.14;100.00;63448.66;4958858;28;20229;-70
2021/10/24 04:16:53;;;;;;;9.60;5.57;;;;;;;-138.14;100.00;63448.66;4946846;28;20218;-73
2021/10/24 04:19:28;;;;;;;11.43;5.50;;;;;;;-138.14;100.00;63448.66;4953598;28;20205;-71
2021/10/24 04:21:56;;;;;;;11.40;5.37;;;;;;;-138.14;100.00;63448.66;4974234;28;20226;-73
2021/10/24 04:24:22;;;;;;;6.70;4.70;;;;;;;-138.14;100.00;63448.66;4974415;28;20234;-73
2021/10/24 04:26:51;;;;;;;8.90;4.97;;;;;;;-138.14;100.00;63448.66;4942024;28;20222;-73
2021/10/24 04:29:16;;;;;;;7.23;4.93;;;;;;;-138.14;100.00;63448.66;4967366;28;20194;-72
2021/10/24 04:31:43;;;;;;;11.23;5.80;;;;;;;-138.14;100.00;63448.66;4942173;28;20612;-72
2021/10/24 04:34:11;;;;;;;7.83;5.23;;;;;;;-138.14;100.00;63448.66;4958434;28;20210;-72
2021/10/24 04:36:37;;;;;;;10.07;5.47;;;;;;;-138.14;100.00;63448.66;4957786;28;20226;-71
2021/10/24 04:39:04;;;;;;;8.50;4.70;;;;;;;-138.14;100.00;63448.66;4941965;28;20187;-71
2021/10/24 04:41:29;;;;;;;10.17;5.63;;;;;;;-138.14;100.00;63448.66;4957788;28;20226;-72
2021/10/24 04:44:00;;;;;;;8.97;5.47;;;;;;;-138.14;100.00;63448.66;4920689;29;20707;-71
2021/10/24 04:46:25;;;;;;;8.23;5.43;;;;;;;-138.14;100.00;63448.66;4930350;29;20203;-71
2021/10/24 04:48:53;;;;;;;7.00;5.30;;;;;;;-138.14;100.00;63448.66;4942525;29;20198;-72
2021/10/24 04:51:21;;;;;;;9.07;5.27;;;;;;;-138.14;100.00;63448.66;4922558;29;20222;-72
2021/10/24 04:53:46;;;;;;;9.77;5.13;;;;;;;-138.14;100.00;63448.66;4942106;28;20621;-72
2021/10/24 04:56:15;;;;;;;7.80;4.53;;;;;;;-138.14;100.00;63448.66;4956956;28;20218;-71
2021/10/24 04:58:46;;;;;;;10.10;5.33;;;;;;;-138.14;100.00;63448.66;4973527;28;20281;-72
2021/10/24 05:01:11;;;;;;;12.37;5.50;;;;;;;-138.14;100.00;63448.66;4925539;28;20238;-72
2021/10/24 05:03:38;;;;;;;9.47;5.63;;;;;;;-138.14;100.00;63448.66;4958033;28;20206;-72
2021/10/24 05:06:04;;;;;;;10.20;5.70;;;;;;;-138.14;100.00;63448.66;4941455;28;20715;-72
2021/10/24 05:08:33;;;;;;;11.47;4.97;;;;;;;-138.14;100.00;63448.66;4957506;28;20197;-72
2021/10/24 05:11:01;;;;;;;7.17;5.03;;;;;;;-138.14;100.00;63448.66;4957352;28;20222;-72
2021/10/24 05:13:27;;;;;;;12.13;5.10;;;;;;;-138.14;100.00;63448.66;4941779;28;20294;-72
2021/10/24 05:15:54;;;;;;;7.03;4.90;;;;;;;-138.14;100.00;63448.66;4941252;28;20229;-72
2021/10/24 05:18:22;;;;;;;10.43;5.67;;;;;;;-138.14;100.00;63448.66;4947993;28;20183;-72
2021/10/24 05:20:47;;;;;;;8.67;5.50;;;;;;;-138.14;100.00;63448.66;4944752;28;20218;-71
2021/10/24 05:23:16;;;;;;;9.43;5.03;;;;;;;-138.14;100.00;63448.66;4922859;28;20277;-72
2021/10/24 05:25:41;;;;;;;9.03;5.27;;;;;;;-138.14;100.00;63448.66;4956959;28;20206;-70
2021/10/24 05:28:09;;;;;;;8.40;5.37;;;;;;;-138.14;100.00;63448.66;4956484;28;20182;-70
2021/10/24 05:30:36;;;;;;;9.43;4.90;;;;;;;-138.14;100.00;63448.66;4937361;29;20226;-70
2021/10/24 05:33:06;;;;;;;7.83;5.47;;;;;;;-138.14;100.00;63448.66;4970328;28;20665;-71
2021/10/24 05:35:46;;;;;;;9.67;4.97;;;;;;;-138.14;100.00;63448.66;4944463;28;20233;-70
2021/10/24 05:38:14;;;;;;;10.33;5.33;;;;;;;-138.14;100.00;63448.66;4957286;28;20277;-70
2021/10/24 05:40:52;;;;;;;7.73;5.23;;;;;;;-138.14;100.00;63448.66;4923273;29;20220;-70
2021/10/24 05:43:18;;;;;;;9.17;5.27;;;;;;;-138.14;100.00;63448.66;4953775;29;20206;-70
2021/10/24 05:45:47;;;;;;;11.43;5.27;;;;;;;-138.14;100.00;63448.66;4951607;28;20833;-68
2021/10/24 05:48:14;;;;;;;8.50;5.47;;;;;;;-138.14;100.00;63448.66;4939310;28;20229;-68
2021/10/24 05:50:50;;;;;;;11.07;5.63;;;;;;;-138.14;100.00;63448.66;4949275;28;20284;-68
2021/10/24 05:53:18;;;;;;;11.10;5.00;;;;;;;-138.14;100.00;63448.66;4925258;28;20218;-69
2021/10/24 05:55:46;;;;;;;7.80;4.83;;;;;;;-138.14;100.00;63448.66;4937726;28;20310;-69
2021/10/24 05:58:12;;;;;;;9.50;6.30;;;;;;;-138.14;100.00;63448.66;4972274;28;20178;-69
2021/10/24 06:01:10;;;;;;;8.47;5.60;;;;;;;-138.14;100.00;63448.66;4933731;28;20218;-69
2021/10/24 06:03:54;;;;;;;7.93;5.00;;;;;;;-138.14;100.00;63448.66;4959638;28;20288;-69
2021/10/24 06:06:38;;;;;;;10.57;6.00;;;;;;;-138.14;100.00;63448.66;4959304;28;20229;-70
2021/10/24 06:09:04;;;;;;;9.67;5.67;;;;;;;-138.14;100.00;63448.66;4940692;28;20182;-69
2021/10/24 06:11:47;;;;;;;13.33;5.50;;;;;;;-138.14;100.00;63448.66;4940315;28;20229;-69
2021/10/24 06:14:18;;;;;;;9.10;5.57;;;;;;;-138.14;100.00;63448.66;4959834;28;20209;-69
2021/10/24 06:16:47;;;;;;;11.83;5.67;;;;;;;-138.14;100.00;63448.66;4936797;28;20215;-69
2021/10/24 06:19:12;;;;;;;10.47;5.80;;;;;;;-138.14;100.00;63448.66;4955632;28;20194;-70
2021/10/24 06:21:38;;;;;;;8.83;5.57;;;;;;;-138.14;100.00;63448.66;4960345;28;20491;-69
2021/10/24 06:24:04;;;;;;;9.80;5.63;;;;;;;-138.14;100.00;63448.66;4940456;28;20703;-70
2021/10/24 06:26:30;;;;;;;14.40;5.90;;;;;;;-138.14;100.00;63448.66;4957803;28;20293;-69
2021/10/24 06:28:56;;;;;;;12.20;5.33;;;;;;;-138.14;100.00;63448.66;4972216;28;20672;-69
2021/10/24 06:31:26;;;;;;;11.37;5.47;;;;;;;-138.14;100.00;63448.66;4932110;28;20230;-70
2021/10/24 06:34:10;;;;;;;11.10;5.77;;;;;;;-138.14;100.00;63448.66;4959191;28;20711;-69
2021/10/24 06:37:17;;;;;;;9.83;5.10;;;;;;;-138.14;100.00;63448.66;4934974;29;20262;-70
2021/10/24 06:39:46;;;;;;;11.23;4.90;;;;;;;-138.14;100.00;63448.66;4924177;28;20558;-69
2021/10/24 06:42:14;;;;;;;11.07;5.50;;;;;;;-138.14;100.00;63448.66;4955453;28;20229;-70
2021/10/24 06:44:58;;;;;;;10.47;5.23;;;;;;;-138.14;100.00;63448.66;4945252;28;20248;-70
2021/10/24 06:47:42;;;;;;;8.27;5.03;;;;;;;-138.14;100.00;63448.66;4971217;28;20307;-70
2021/10/24 06:50:30;;;;;;;10.07;5.20;;;;;;;-138.14;100.00;63448.66;4956273;28;20262;-70
2021/10/24 06:52:58;;;;;;;7.50;5.03;;;;;;;-138.14;100.00;63448.66;4973319;28;20205;-70
2021/10/24 06:55:33;;;;;;;10.77;4.57;;;;;;;-138.14;100.00;63448.66;4971705;28;20632;-70
2021/10/24 06:58:00;;;;;;;10.50;5.10;;;;;;;-138.14;100.00;63448.66;4966486;28;20210;-70
2021/10/24 07:00:45;;;;;;;8.50;5.10;;;;;;;-138.14;100.00;63448.66;4977757;28;20600;-71
2021/10/24 07:03:49;;;;;;;8.73;5.00;;;;;;;-138.14;100.00;63448.66;4938444;29;20223;-71
2021/10/24 07:06:23;;;;;;;8.63;4.57;;;;;;;-138.14;100.00;63448.66;4922099;29;20229;-69
2021/10/24 07:09:07;;;;;;;11.97;4.93;;;;;;;-138.14;100.00;63448.66;4962921;28;20294;-69
2021/10/24 07:11:34;;;;;;;9.10;4.67;;;;;;;-138.14;100.00;63448.66;4943049;28;20222;-70
2021/10/24 07:14:02;;;;;;;6.80;4.70;;;;;;;-138.14;100.00;63448.66;4942857;28;20198;-70
2021/10/24 07:16:28;;;;;;;8.80;4.87;;;;;;;-138.14;100.00;63448.66;4960009;28;20222;-69
2021/10/24 07:18:58;;;;;;;7.73;4.90;;;;;;;-138.14;100.00;63448.66;4965249;28;20206;-71
2021/10/24 07:21:23;;;;;;;6.67;4.40;;;;;;;-138.14;100.00;63448.66;4940331;28;20222;-68
2021/10/24 07:23:50;;;;;;;6.90;4.37;;;;;;;-138.14;100.00;63448.66;4939444;28;20202;-69
2021/10/24 07:26:21;;;;;;;7.07;4.63;;;;;;;-138.14;100.00;63448.66;4916932;28;20217;-69
2021/10/24 07:28:48;;;;;;;9.07;4.83;;;;;;;-138.14;100.00;63448.66;4955430;28;20715;-70
2021/10/24 07:31:16;;;;;;;7.30;4.30;;;;;;;-138.14;100.00;63448.66;4939572;28;20249;-70
2021/10/24 07:33:47;;;;;;;9.97;4.40;;;;;;;-138.14;100.00;63448.66;4940192;28;20206;-70
2021/10/24 07:36:24;;;;;;;10.77;6.10;;;;;;;-138.14;100.00;63448.66;4936587;28;20314;-69
2021/10/24 07:38:52;;;;;;;9.37;4.63;;;;;;;-138.14;100.00;63448.66;4939814;28;20183;-69
2021/10/24 07:41:20;;;;;;;13.93;6.47;;;;;;;-138.14;100.00;63448.66;4938955;28;20268;-70
2021/10/24 07:43:46;;;;;;;8.23;4.57;;;;;;;-138.14;100.00;63448.66;4955658;28;20206;-69
2021/10/24 07:46:12;;;;;;;9.70;5.00;;;;;;;-138.14;100.00;63448.66;4938971;28;20229;-69
2021/10/24 07:48:42;;;;;;;10.13;5.87;;;;;;;-138.14;100.00;63448.66;4951691;28;20202;-70
2021/10/24 07:51:09;;;;;;;9.50;5.50;;;;;;;-138.14;100.00;63448.66;4954398;28;20602;-69
2021/10/24 07:53:35;;;;;;;10.23;7.17;;;;;;;-138.14;100.00;63448.66;4939457;28;20206;-70
2021/10/24 07:56:06;;;;;;;14.40;11.70;;;;;;;-138.14;100.00;63448.66;4954638;28;20250;-69
2021/10/24 07:58:56;;;;;;;8.37;5.53;;;;;;;-138.14;100.00;63448.66;4968008;28;20228;-70
2021/10/24 08:01:22;;;;;;;6.77;5.30;;;;;;;-138.14;100.00;63448.66;4954903;28;20230;-70
2021/10/24 08:03:49;;;;;;;11.47;6.50;;;;;;;-138.14;100.00;63448.66;4936505;29;20273;-71
2021/10/24 08:06:24;;;;;;;18.00;11.80;;;;;;;-138.14;100.00;63448.66;4936709;29;20253;-70
2021/10/24 08:08:52;;;;;;;9.73;6.30;;;;;;;-138.14;100.00;63448.66;4952354;28;20556;-70
2021/10/24 08:11:18;;;;;;;11.63;7.20;;;;;;;-138.14;100.00;63448.66;4919938;28;20222;-71
2021/10/24 08:13:45;;;;;;;7.87;4.43;;;;;;;-138.14;100.00;63448.66;4946807;28;20289;-73
2021/10/24 08:16:15;;;;;;;7.57;4.10;;;;;;;-138.14;100.00;63448.66;4968222;28;20250;-70
2021/10/24 08:18:43;;;;;;;7.97;4.50;;;;;;;-138.14;100.00;63448.66;4957951;28;20277;-71
2021/10/24 08:21:20;;;;;;;6.70;3.60;;;;;;;-138.14;100.00;63448.66;4986050;28;20576;-72
2021/10/24 08:23:48;;;;;;;47.97;6.27;;;;;;;-138.14;100.00;63448.66;4939361;28;20203;-77
2021/10/24 08:26:14;;;;;;;7.87;4.93;;;;;;;-138.14;100.00;63448.66;4962980;28;20602;-71
2021/10/24 08:28:40;;;;;;;7.57;4.27;;;;;;;-138.14;100.00;63448.66;4953131;28;20183;-68
2021/10/24 08:31:28;;;;;;;6.23;3.33;;;;;;;-138.14;100.00;63448.66;4955049;28;20237;-70
2021/10/24 08:33:54;;;;;;;10.10;3.80;;;;;;;-138.14;100.00;63448.66;4966385;28;20680;-69
2021/10/24 08:36:21;;;;;;;6.97;3.70;;;;;;;-138.14;100.00;63448.66;4936650;28;20222;-67
2021/10/24 08:38:49;;;;;;;8.07;3.57;;;;;;;-138.14;100.00;63448.66;4951135;28;20281;-69
2021/10/24 08:41:21;;;;;;;8.90;3.57;;;;;;;-138.14;100.00;63448.66;4968850;28;20297;-70
2021/10/24 08:43:49;;;;;;;9.97;3.10;;;;;;;-138.14;100.00;63448.66;4966977;28;20594;-69
2021/10/24 08:46:17;;;;;;;9.70;4.07;;;;;;;-138.14;100.00;63448.66;4960446;28;20240;-70
2021/10/24 08:48:44;;;;;;;7.67;3.17;;;;;;;-138.14;100.00;63448.66;4955433;28;20274;-69
2021/10/24 08:51:12;;;;;;;7.17;3.60;;;;;;;-138.14;100.00;63448.66;4932216;28;20700;-70
2021/10/24 08:53:38;;;;;;;6.00;4.03;;;;;;;-138.14;100.00;63448.66;4957372;28;20214;-70
2021/10/24 08:56:04;;;;;;;6.40;3.40;;;;;;;-138.14;100.00;63448.66;4957135;28;20317;-69
2021/10/24 08:58:30;;;;;;;5.90;3.10;;;;;;;-138.14;100.00;63448.66;4947616;28;20189;-70
2021/10/24 09:00:55;;;;;;;7.83;3.37;;;;;;;-138.14;100.00;63448.66;4941400;28;20232;-69
2021/10/24 09:03:21;;;;;;;7.27;3.40;;;;;;;-138.14;100.00;63448.66;4941836;28;20214;-69
2021/10/24 09:05:49;;;;;;;6.13;3.37;;;;;;;-138.14;100.00;63448.66;4962526;28;20210;-70
2021/10/24 09:08:26;;;;;;;5.77;3.30;;;;;;;-138.14;100.00;63448.66;4974861;28;20190;-70
2021/10/24 09:10:57;;;;;;;6.60;3.67;;;;;;;-138.14;100.00;63448.66;4956576;28;20225;-72
2021/10/24 09:13:24;;;;;;;7.97;3.43;;;;;;;-138.14;100.00;63448.66;4941384;28;20722;-71
2021/10/24 09:15:58;;;;;;;6.97;3.50;;;;;;;-138.14;100.00;63448.66;4956630;28;20237;-72
2021/10/24 09:18:30;;;;;;;9.07;4.03;;;;;;;-138.14;100.00;63448.66;4961214;28;20194;-72
2021/10/24 09:21:20;;;;;;;5.53;3.00;;;;;;;-138.14;100.00;63448.66;4956932;28;20598;-71
2021/10/24 09:23:52;;;;;;;5.90;3.50;;;;;;;-138.14;100.00;63448.66;4985310;28;20569;-72
2021/10/24 09:26:28;;;;;;;5.10;3.10;;;;;;;-138.14;100.00;63448.66;4974127;28;20289;-70
2021/10/24 09:29:17;;;;;;;7.40;3.03;;;;;;;-138.14;100.00;63448.66;4943090;28;20261;-70
2021/10/24 09:31:51;;;;;;;7.77;3.03;;;;;;;-138.14;100.00;63448.66;4925989;28;20230;-70
2021/10/24 09:34:22;;;;;;;6.77;3.20;;;;;;;-138.14;100.00;63448.66;4974522;28;20245;-70
2021/10/24 09:36:55;;;;;;;7.57;3.00;;;;;;;-138.14;100.00;63448.66;4956472;28;20233;-71
2021/10/24 09:39:41;;;;;;;4.07;2.40;;;;;;;-138.14;100.00;63448.66;4959345;28;20222;-70
2021/10/24 09:42:11;;;;;;;5.10;2.90;;;;;;;-138.14;100.00;63448.66;4941316;28;20226;-70
2021/10/24 09:45:04;;;;;;;6.40;2.87;;;;;;;-138.14;100.00;63448.66;4937425;29;20267;-70
2021/10/24 09:47:36;;;;;;;4.73;2.60;;;;;;;-138.14;100.00;63448.66;4935187;28;20217;-70
2021/10/24 09:50:05;;;;;;;5.73;2.77;;;;;;;-138.14;100.00;63448.66;4961648;28;20197;-71
2021/10/24 09:52:31;;;;;;;5.33;2.90;;;;;;;-138.14;100.00;63448.66;4956542;28;20613;-70
2021/10/24 09:55:03;;;;;;;7.30;2.60;;;;;;;-138.14;100.00;63448.66;4935352;28;20202;-72
2021/10/24 09:57:33;;;;;;;6.37;2.30;;;;;;;-138.14;100.00;63448.66;4970737;28;20214;-70
2021/10/24 09:59:58;;;;;;;4.67;2.60;;;;;;;-138.14;100.00;63448.66;4942715;28;20194;-70
2021/10/24 10:02:27;;;;;;;6.13;2.73;;;;;;;-138.14;100.00;63448.66;4956573;28;20276;-71
2021/10/24 10:04:52;;;;;;;5.83;3.00;;;;;;;-138.14;100.00;63448.66;4956611;28;20202;-70
2021/10/24 10:07:18;;;;;;;5.63;2.37;;;;;;;-138.14;100.00;63448.66;4940415;28;20233;-68
2021/10/24 10:09:44;;;;;;;5.00;2.53;;;;;;;-138.14;100.00;63448.66;4973813;28;20562;-70
2021/10/24 10:12:11;;;;;;;5.90;2.63;;;;;;;-138.14;100.00;63448.66;4973406;28;20234;-69
2021/10/24 10:14:37;;;;;;;6.87;2.80;;;;;;;-138.14;100.00;63448.66;4940710;28;20733;-68
2021/10/24 10:17:13;;;;;;;4.63;2.37;;;;;;;-138.14;100.00;63448.66;4959048;28;20308;-70
2021/10/24 10:19:41;;;;;;;6.43;2.60;;;;;;;-138.14;100.00;63448.66;4938644;28;20715;-70
2021/10/24 10:22:20;;;;;;;5.73;2.27;;;;;;;-138.14;100.00;63448.66;4970274;28;20606;-69
2021/10/24 10:24:46;;;;;;;6.33;2.10;;;;;;;-138.14;100.00;63448.66;4973202;28;20209;-70
2021/10/24 10:27:26;;;;;;;5.53;2.30;;;;;;;-138.14;100.00;63448.66;4979620;28;20216;-69
2021/10/24 10:29:53;;;;;;;4.53;1.80;;;;;;;-138.14;100.00;63448.66;4973104;28;20186;-71
2021/10/24 10:32:20;;;;;;;5.77;2.23;;;;;;;-138.14;100.00;63448.66;4973485;28;20222;-72
2021/10/24 10:34:57;;;;;;;3.83;2.00;;;;;;;-138.14;100.00;63448.66;4973468;28;20293;-73
2021/10/24 10:37:51;;;;;;;4.87;2.13;;;;;;;-138.14;100.00;63448.66;4955600;28;20287;-70
2021/10/24 10:40:24;;;;;;;3.73;2.10;;;;;;;-138.14;100.00;63448.66;4955456;28;20197;-69
2021/10/24 10:42:56;;;;;;;4.77;2.00;;;;;;;-138.14;100.00;63448.66;4973341;28;20186;-71
2021/10/24 10:45:24;;;;;;;3.27;1.73;;;;;;;-138.14;100.00;63448.66;4955546;28;20221;-70
2021/10/24 10:48:00;;;;;;;4.50;1.90;;;;;;;-138.14;100.00;63448.66;4951155;28;20190;-70
2021/10/24 10:50:28;;;;;;;4.17;1.80;;;;;;;-138.14;100.00;63448.66;4945842;28;20273;-69
2021/10/24 10:52:58;;;;;;;4.47;1.90;;;;;;;-138.14;100.00;63448.66;4953932;28;20579;-69
2021/10/24 10:55:25;;;;;;;4.93;2.00;;;;;;;-138.14;100.00;63448.66;4938050;28;20289;-70
2021/10/24 10:57:55;;;;;;;5.00;1.90;;;;;;;-138.14;100.00;63448.66;4949677;28;20202;-72
2021/10/24 11:00:34;;;;;;;3.80;1.53;;;;;;;-138.14;100.00;63448.66;4950460;28;20201;-71
2021/10/24 11:02:59;;;;;;;5.73;1.80;;;;;;;-138.14;100.00;63448.66;4939966;28;20186;-71
2021/10/24 11:05:34;;;;;;;3.20;1.70;;;;;;;-138.14;100.00;63448.66;4935938;28;20253;-71
2021/10/24 11:08:02;;;;;;;5.43;2.30;;;;;;;-138.14;100.00;63448.66;4952744;29;20189;-71
2021/10/24 11:10:46;;;;;;;3.87;1.57;;;;;;;-138.14;100.00;63448.66;4927661;28;20687;-71
2021/10/24 11:13:43;;;;;;;4.77;1.80;;;;;;;-138.14;100.00;63448.66;4971285;28;20202;-71
2021/10/24 11:16:32;;;;;;;4.73;1.70;;;;;;;-138.14;100.00;63448.66;4935841;28;20268;-71
2021/10/24 11:18:58;;;;;;;3.90;1.80;;;;;;;-138.14;100.00;63448.66;4971019;28;20198;-70
2021/10/24 11:21:27;;;;;;;3.00;1.60;;;;;;;-138.14;100.00;63448.66;4928636;28;20186;-71